Time;durP1;ratioP1;P1;durP2;ratioP2;P2;SDS_P1;SDS_P2;PMS_P1;PMS_P2;Temp;Humidity;BMP_temperature;BMP_pressure;BME280_temperature;BME280_humidity;BME280_pressure;Samples;Min_cycle;Max_cycle;Signal;HPM_P1;HPM_P2
2021/05/12 00:00:17;;;;;;;11.10;4.90;;;;;;;13.82;66.65;98554.89;1813497;79;21334;-78
2021/05/12 00:02:46;;;;;;;8.65;4.40;;;;;;;13.73;63.66;98554.41;1794174;79;22282;-78
2021/05/12 00:05:14;;;;;;;14.43;4.22;;;;;;;13.64;66.16;98552.20;1802225;78;22166;-78
2021/05/12 00:07:41;;;;;;;11.05;4.53;;;;;;;13.61;68.48;98554.98;1807514;79;20982;-77
2021/05/12 00:10:10;;;;;;;9.43;3.95;;;;;;;13.56;65.94;98549.58;1804406;79;21006;-77
2021/05/12 00:12:39;;;;;;;12.10;4.45;;;;;;;13.51;65.03;98549.80;1801563;79;20989;-77
2021/05/12 00:15:16;;;;;;;8.25;3.85;;;;;;;13.42;65.38;98551.51;1773440;80;20994;-77
2021/05/12 00:17:44;;;;;;;9.53;3.70;;;;;;;13.37;66.88;98547.81;1724468;82;21090;-77
2021/05/12 00:20:14;;;;;;;10.40;3.75;;;;;;;13.35;66.47;98544.86;1718082;82;20995;-77
2021/05/12 00:22:48;;;;;;;7.22;3.62;;;;;;;13.32;66.94;98541.47;1804332;79;21031;-77
2021/05/12 00:25:13;;;;;;;8.70;3.98;;;;;;;13.31;67.16;98545.02;1806039;79;21041;-77
2021/05/12 00:27:40;;;;;;;10.85;3.90;;;;;;;13.32;66.90;98538.86;1801903;79;21130;-77
2021/05/12 00:30:11;;;;;;;6.67;3.65;;;;;;;13.33;68.99;98548.40;1803517;79;21033;-79
2021/05/12 00:32:40;;;;;;;8.50;3.85;;;;;;;13.35;69.70;98542.25;1783588;79;21005;-76
2021/05/12 00:35:08;;;;;;;6.30;3.37;;;;;;;13.36;67.30;98547.88;1786447;79;20958;-79
2021/05/12 00:37:35;;;;;;;9.45;3.67;;;;;;;13.39;67.01;98547.72;1796232;79;20985;-78
2021/05/12 00:40:03;;;;;;;9.48;3.92;;;;;;;13.38;67.54;98534.29;1799402;79;21037;-80
2021/05/12 00:42:32;;;;;;;8.43;3.52;;;;;;;13.37;66.38;98534.75;1808611;79;21116;-77
2021/05/12 00:44:59;;;;;;;10.18;4.12;;;;;;;13.35;67.24;98531.80;1778598;80;21001;-78
2021/05/12 00:47:31;;;;;;;11.30;3.47;;;;;;;13.33;67.32;98531.90;1778155;80;21024;-79
2021/05/12 00:49:58;;;;;;;8.70;3.92;;;;;;;13.27;68.44;98528.20;1764277;81;21000;-79
2021/05/12 00:52:26;;;;;;;7.33;3.77;;;;;;;13.25;66.40;98530.03;1725174;81;21077;-78
2021/05/12 00:54:53;;;;;;;8.68;3.80;;;;;;;13.20;68.48;98526.33;1747163;82;21066;-78
2021/05/12 00:57:21;;;;;;;11.30;4.17;;;;;;;13.14;67.47;98523.53;1752170;81;21041;-78
2021/05/12 00:59:50;;;;;;;8.78;3.95;;;;;;;13.12;69.31;98527.97;1778527;80;21065;-81
2021/05/12 01:02:17;;;;;;;8.35;4.20;;;;;;;13.08;67.45;98529.49;1763389;81;21067;-78
2021/05/12 01:04:43;;;;;;;10.98;4.35;;;;;;;13.06;67.92;98531.33;1746983;82;21608;-79
2021/05/12 01:07:10;;;;;;;7.28;3.85;;;;;;;13.00;69.04;98527.22;1760944;81;21055;-79
2021/05/12 01:09:37;;;;;;;10.15;4.10;;;;;;;12.94;68.57;98520.50;1727621;81;21037;-79
2021/05/12 01:12:05;;;;;;;10.60;3.83;;;;;;;12.90;66.62;98520.71;1745513;80;21065;-78
2021/05/12 01:14:32;;;;;;;7.25;3.98;;;;;;;12.82;69.75;98511.91;1736570;82;21077;-78
2021/05/12 01:16:59;;;;;;;7.20;3.85;;;;;;;12.81;68.45;98521.10;1761439;79;21104;-78
2021/05/12 01:19:27;;;;;;;7.15;3.20;;;;;;;12.76;69.53;98519.17;1748360;80;21029;-79
2021/05/12 01:21:55;;;;;;;8.35;3.62;;;;;;;12.73;70.98;98522.30;1764867;80;21021;-78
2021/05/12 01:24:23;;;;;;;7.53;3.52;;;;;;;12.66;69.05;98518.25;1762949;80;20993;-79
2021/05/12 01:26:49;;;;;;;5.67;3.35;;;;;;;12.68;71.22;98526.02;1757597;81;21127;-78
2021/05/12 01:29:16;;;;;;;7.75;3.77;;;;;;;12.64;69.40;98518.77;1758320;80;21056;-78
2021/05/12 01:31:45;;;;;;;6.83;3.10;;;;;;;12.60;70.16;98516.37;1746602;80;21083;-79
2021/05/12 01:34:15;;;;;;;7.08;3.70;;;;;;;12.57;68.98;98519.09;1768310;79;21052;-82
2021/05/12 01:36:43;;;;;;;8.73;3.10;;;;;;;12.53;69.46;98513.16;1731734;81;21068;-78
2021/05/12 01:39:11;;;;;;;8.13;3.27;;;;;;;12.53;69.67;98512.72;1767476;79;21158;-81
2021/05/12 01:41:38;;;;;;;6.87;2.90;;;;;;;12.53;68.84;98510.11;1746991;80;21136;-79
2021/05/12 01:44:09;;;;;;;7.65;3.30;;;;;;;12.54;67.87;98516.16;1753922;79;21101;-79
2021/05/12 01:46:35;;;;;;;7.35;3.00;;;;;;;12.48;69.41;98514.66;1744286;80;21050;-78
2021/05/12 01:49:02;;;;;;;7.05;2.92;;;;;;;12.45;69.94;98513.47;1746087;80;22012;-79
2021/05/12 01:51:29;;;;;;;7.08;3.45;;;;;;;12.46;70.44;98513.04;1798447;79;21633;-78
2021/05/12 01:53:56;;;;;;;12.53;4.17;;;;;;;12.46;69.36;98508.66;1801636;79;21061;-79
2021/05/12 01:56:22;;;;;;;7.65;3.62;;;;;;;12.46;70.72;98509.13;1803876;79;21613;-79
2021/05/12 01:58:50;;;;;;;6.25;3.60;;;;;;;12.42;69.64;98509.70;1791796;79;21045;-79
2021/05/12 02:01:16;;;;;;;6.97;4.17;;;;;;;12.38;71.75;98508.14;1799397;78;21010;-78
2021/05/12 02:03:43;;;;;;;10.50;3.92;;;;;;;12.33;70.74;98516.16;1813678;79;21592;-77
2021/05/12 02:06:09;;;;;;;7.58;3.87;;;;;;;12.30;70.41;98503.24;1791691;79;21111;-81
2021/05/12 02:08:36;;;;;;;9.43;3.55;;;;;;;12.25;70.76;98506.48;1795732;79;21017;-78
2021/05/12 02:11:05;;;;;;;7.37;4.03;;;;;;;12.21;68.87;98497.09;1794520;79;21063;-78
2021/05/12 02:13:33;;;;;;;8.43;4.12;;;;;;;12.13;72.92;98503.92;1796114;79;21105;-78
2021/05/12 02:16:04;;;;;;;9.38;3.72;;;;;;;12.09;70.85;98501.05;1802485;79;21554;-77
2021/05/12 02:18:30;;;;;;;6.10;3.52;;;;;;;12.05;71.57;98498.64;1790487;79;21615;-78
2021/05/12 02:20:57;;;;;;;7.95;3.55;;;;;;;12.02;70.50;98496.18;1806969;79;21712;-77
2021/05/12 02:23:25;;;;;;;6.83;3.72;;;;;;;11.97;71.67;98486.39;1808813;79;21125;-78
2021/05/12 02:25:52;;;;;;;7.62;3.52;;;;;;;11.92;72.12;98490.03;1789300;79;21008;-78
2021/05/12 02:28:19;;;;;;;9.33;3.42;;;;;;;11.83;70.93;98467.38;1780543;79;21081;-78
2021/05/12 02:30:46;;;;;;;7.42;2.83;;;;;;;11.85;70.88;98474.67;1806706;79;21545;-77
2021/05/12 02:33:12;;;;;;;7.15;3.27;;;;;;;11.85;73.01;98479.88;1808059;78;21063;-78
2021/05/12 02:35:41;;;;;;;9.60;3.72;;;;;;;11.85;71.23;98475.52;1777890;79;21104;-78
2021/05/12 02:38:08;;;;;;;5.05;3.22;;;;;;;11.84;72.72;98475.59;1765226;79;21001;-78
2021/05/12 02:40:35;;;;;;;8.25;3.58;;;;;;;11.83;72.73;98476.48;1810052;79;21140;-79
2021/05/12 02:43:03;;;;;;;8.13;3.90;;;;;;;11.82;72.82;98467.00;1785147;79;21131;-79
2021/05/12 02:45:32;;;;;;;10.25;3.30;;;;;;;11.81;72.72;98475.70;1799511;79;20987;-79
2021/05/12 02:48:01;;;;;;;7.30;4.25;;;;;;;11.78;73.32;98458.45;1794474;79;21557;-78
2021/05/12 02:50:35;;;;;;;8.95;4.58;;;;;;;11.76;71.76;98471.99;1804652;78;20958;-78
2021/05/12 02:53:04;;;;;;;9.45;3.85;;;;;;;11.74;72.21;98460.80;1791069;79;21029;-79
2021/05/12 02:55:32;;;;;;;6.55;3.27;;;;;;;11.72;74.31;98469.95;1780054;78;21028;-79
2021/05/12 02:57:59;;;;;;;10.40;4.00;;;;;;;11.71;73.07;98471.31;1802215;79;21557;-79
2021/05/12 03:00:28;;;;;;;10.65;4.03;;;;;;;11.69;72.89;98460.95;1804857;79;21037;-79
2021/05/12 03:02:56;;;;;;;8.68;4.12;;;;;;;11.68;71.95;98463.64;1812063;79;21017;-80
2021/05/12 03:05:23;;;;;;;6.28;3.25;;;;;;;11.65;72.33;98465.05;1813442;79;20990;-79
2021/05/12 03:07:51;;;;;;;9.68;3.65;;;;;;;11.63;71.42;98469.47;1796766;78;21013;-79
2021/05/12 03:10:20;;;;;;;10.20;3.80;;;;;;;11.62;70.48;98472.53;1807021;79;20985;-79
2021/05/12 03:12:47;;;;;;;6.72;3.62;;;;;;;11.60;72.22;98477.39;1802776;79;21103;-79
2021/05/12 03:15:18;;;;;;;7.15;3.52;;;;;;;11.58;72.14;98473.56;1772807;80;21045;-79
2021/05/12 03:17:45;;;;;;;7.97;3.20;;;;;;;11.59;70.74;98470.50;1725316;82;21164;-78
2021/05/12 03:20:13;;;;;;;8.60;3.60;;;;;;;11.59;71.17;98470.04;1735461;82;21080;-79
2021/05/12 03:22:40;;;;;;;9.20;3.92;;;;;;;11.60;72.94;98465.67;1741850;81;21084;-79
2021/05/12 03:25:07;;;;;;;5.20;3.17;;;;;;;11.61;72.76;98467.38;1767135;80;21037;-79
2021/05/12 03:27:34;;;;;;;6.70;3.05;;;;;;;11.65;71.91;98476.30;1761116;81;21080;-79
2021/05/12 03:30:00;;;;;;;8.75;3.27;;;;;;;11.67;71.96;98470.58;1730780;81;21049;-79
2021/05/12 03:32:26;;;;;;;5.60;2.75;;;;;;;11.69;71.71;98472.67;1789291;79;21017;-79
2021/05/12 03:34:54;;;;;;;6.70;3.45;;;;;;;11.72;72.74;98466.05;1796904;79;21120;-79
2021/05/12 03:37:21;;;;;;;12.50;3.40;;;;;;;11.75;71.69;98467.22;1813339;79;21056;-78
2021/05/12 03:39:47;;;;;;;8.28;3.30;;;;;;;11.81;71.25;98467.42;1805093;79;21060;-77
2021/05/12 03:42:15;;;;;;;7.60;2.87;;;;;;;11.87;70.87;98466.34;1812888;79;21727;-78
2021/05/12 03:44:41;;;;;;;8.35;3.45;;;;;;;11.92;71.06;98461.84;1804074;79;21046;-79
2021/05/12 03:47:07;;;;;;;8.73;3.55;;;;;;;11.97;71.62;98465.09;1803289;77;21028;-79
2021/05/12 03:49:34;;;;;;;10.15;3.50;;;;;;;12.01;71.54;98461.44;1766362;80;21112;-79
2021/05/12 03:52:00;;;;;;;9.55;4.08;;;;;;;12.06;70.22;98469.93;1807644;77;21064;-79
2021/05/12 03:54:27;;;;;;;7.55;3.33;;;;;;;12.10;70.59;98462.84;1800351;77;21038;-80
2021/05/12 03:56:55;;;;;;;9.53;3.17;;;;;;;12.13;69.96;98471.81;1815162;79;21585;-79
2021/05/12 03:59:22;;;;;;;8.45;3.70;;;;;;;12.18;71.15;98465.13;1762359;80;21001;-79
2021/05/12 04:01:49;;;;;;;8.83;3.80;;;;;;;12.21;69.13;98467.13;1792488;78;21037;-78
2021/05/12 04:04:16;;;;;;;9.95;4.08;;;;;;;12.24;70.38;98468.78;1802329;79;21076;-79
2021/05/12 04:06:45;;;;;;;7.50;3.70;;;;;;;12.26;68.39;98473.47;1803193;79;21009;-79
2021/05/12 04:09:12;;;;;;;6.55;3.55;;;;;;;12.29;69.51;98467.65;1803594;79;21036;-77
2021/05/12 04:11:38;;;;;;;6.60;3.72;;;;;;;12.34;68.51;98463.57;1760796;80;21033;-79
2021/05/12 04:14:05;;;;;;;9.20;4.20;;;;;;;12.40;67.98;98458.56;1794024;79;21652;-77
2021/05/12 04:16:32;;;;;;;12.80;3.62;;;;;;;12.44;68.21;98457.05;1787482;79;21122;-76
2021/05/12 04:18:59;;;;;;;15.60;4.45;;;;;;;12.49;69.34;98456.41;1782988;79;21122;-79
2021/05/12 04:21:26;;;;;;;8.73;3.67;;;;;;;12.56;68.83;98453.53;1796517;79;21147;-78
2021/05/12 04:23:52;;;;;;;9.43;4.28;;;;;;;12.64;68.15;98454.04;1796468;79;21084;-79
2021/05/12 04:26:19;;;;;;;7.95;3.42;;;;;;;12.69;67.13;98443.80;1790162;79;21058;-79
2021/05/12 04:28:45;;;;;;;8.13;3.52;;;;;;;12.76;67.29;98450.05;1795354;79;21669;-78
2021/05/12 04:31:12;;;;;;;6.33;3.50;;;;;;;12.82;66.96;98441.95;1787997;79;21016;-79
2021/05/12 04:33:39;;;;;;;6.83;3.20;;;;;;;12.90;67.20;98451.11;1793386;79;21454;-78
2021/05/12 04:36:06;;;;;;;13.78;3.65;;;;;;;12.99;66.98;98452.91;1806567;79;20997;-78
2021/05/12 04:38:33;;;;;;;11.40;4.35;;;;;;;13.07;66.85;98456.02;1801715;78;21112;-80
2021/05/12 04:40:59;;;;;;;12.25;3.42;;;;;;;13.12;66.74;98448.84;1800450;79;21055;-76
2021/05/12 04:43:26;;;;;;;18.70;4.00;;;;;;;13.20;66.49;98448.03;1793012;79;21013;-77
2021/05/12 04:45:54;;;;;;;10.90;3.83;;;;;;;13.31;66.05;98443.66;1807721;78;21147;-77
2021/05/12 04:48:20;;;;;;;9.98;4.42;;;;;;;13.40;65.75;98442.38;1788580;78;21041;-78
2021/05/12 04:50:47;;;;;;;13.53;4.17;;;;;;;13.45;65.97;98446.47;1815862;79;21068;-79
2021/05/12 04:53:13;;;;;;;9.03;3.50;;;;;;;13.51;65.94;98442.27;1810260;78;22196;-78
2021/05/12 04:55:40;;;;;;;10.53;3.75;;;;;;;13.61;65.61;98447.02;1796741;79;21350;-78
2021/05/12 04:58:06;;;;;;;8.78;3.80;;;;;;;13.66;65.58;98444.59;1818303;78;21064;-78
2021/05/12 05:00:33;;;;;;;8.25;3.70;;;;;;;13.73;65.38;98437.32;1818976;79;21049;-78
2021/05/12 05:03:00;;;;;;;11.88;3.22;;;;;;;13.81;65.82;98443.48;1811029;78;21524;-81
2021/05/12 05:05:28;;;;;;;8.43;3.52;;;;;;;13.89;65.32;98434.80;1814514;78;20990;-78
2021/05/12 05:07:55;;;;;;;10.60;3.05;;;;;;;13.98;64.86;98445.25;1799803;79;21045;-78
2021/05/12 05:10:21;;;;;;;9.00;3.15;;;;;;;14.06;64.25;98439.19;1804079;78;21041;-77
2021/05/12 05:12:48;;;;;;;9.85;3.45;;;;;;;14.15;64.86;98436.13;1801305;79;21092;-80
2021/05/12 05:15:16;;;;;;;5.83;3.17;;;;;;;14.21;64.20;98431.05;1806636;79;21536;-78
2021/05/12 05:17:44;;;;;;;15.50;3.77;;;;;;;14.28;63.91;98423.27;1811294;78;21044;-79
2021/05/12 05:20:12;;;;;;;11.28;3.95;;;;;;;14.34;63.58;98426.87;1799030;78;21908;-80
2021/05/12 05:22:39;;;;;;;8.98;3.60;;;;;;;14.41;63.52;98431.34;1813189;79;21123;-78
2021/05/12 05:25:08;;;;;;;10.38;3.70;;;;;;;14.50;63.25;98434.33;1823555;78;21309;-80
2021/05/12 05:27:34;;;;;;;8.78;3.10;;;;;;;14.60;63.11;98436.02;1792782;79;21635;-78
2021/05/12 05:30:01;;;;;;;5.72;3.02;;;;;;;14.70;62.50;98431.15;1800833;78;21042;-79
2021/05/12 05:32:46;;;;;;;5.47;3.08;;;;;;;14.79;62.25;98436.38;1794716;79;21060;-78
2021/05/12 05:35:31;;;;;;;11.20;3.20;;;;;;;14.90;62.24;98436.20;1820023;78;21334;-78
2021/05/12 05:38:16;;;;;;;9.03;2.75;;;;;;;15.01;62.17;98440.01;1797537;79;21144;-79
2021/05/12 05:41:02;;;;;;;8.50;3.00;;;;;;;15.11;60.97;98434.18;1811656;79;21644;-77
2021/05/12 05:43:47;;;;;;;10.93;3.33;;;;;;;15.21;60.79;98435.84;1793053;79;21033;-79
2021/05/12 05:46:32;;;;;;;9.05;3.20;;;;;;;15.36;60.38;98428.94;1789137;80;21127;-79
2021/05/12 05:49:17;;;;;;;11.75;3.08;;;;;;;15.47;59.44;98437.49;1784770;79;21122;-79
2021/05/12 05:52:04;;;;;;;9.00;2.90;;;;;;;15.59;58.27;98428.94;1811012;79;21096;-81
2021/05/12 05:54:48;;;;;;;9.08;3.12;;;;;;;15.67;57.92;98431.13;1789192;79;21059;-78
2021/05/12 05:57:34;;;;;;;9.40;2.98;;;;;;;15.75;58.09;98428.95;1809068;79;21480;-79
2021/05/12 06:00:20;;;;;;;6.37;2.80;;;;;;;15.81;57.99;98419.90;1802189;79;21105;-78
2021/05/12 06:02:47;;;;;;;10.32;3.25;;;;;;;15.88;58.16;98422.09;1801359;79;21343;-78
2021/05/12 06:05:32;;;;;;;10.23;2.67;;;;;;;15.96;57.88;98424.27;1805443;79;21068;-77
2021/05/12 06:08:17;;;;;;;6.47;2.45;;;;;;;16.08;58.18;98420.93;1816627;78;21061;-82
2021/05/12 06:11:02;;;;;;;8.20;3.12;;;;;;;16.22;57.16;98424.53;1811628;79;21104;-79
2021/05/12 06:13:50;;;;;;;4.42;2.70;;;;;;;16.31;56.55;98416.10;1809614;79;21659;-79
2021/05/12 06:16:35;;;;;;;11.05;3.33;;;;;;;16.41;56.07;98417.27;1791214;79;21114;-78
2021/05/12 06:19:20;;;;;;;12.15;3.02;;;;;;;16.50;55.72;98407.98;1809169;78;21013;-78
2021/05/12 06:22:05;;;;;;;7.53;2.70;;;;;;;16.63;55.63;98415.50;1789235;79;21101;-78
2021/05/12 06:24:50;;;;;;;9.60;3.02;;;;;;;16.73;54.90;98400.02;1814302;79;21963;-78
2021/05/12 06:27:35;;;;;;;9.15;3.20;;;;;;;16.80;52.73;98410.52;1812218;79;21538;-79
2021/05/12 06:30:20;;;;;;;5.58;2.52;;;;;;;16.90;53.74;98410.83;1799574;79;21005;-81
2021/05/12 06:33:07;;;;;;;6.22;2.90;;;;;;;16.98;53.76;98409.05;1793920;79;21116;-79
2021/05/12 06:35:53;;;;;;;6.10;2.90;;;;;;;17.08;53.41;98399.66;1801431;79;21120;-79
2021/05/12 06:38:39;;;;;;;9.43;2.98;;;;;;;17.18;51.91;98401.23;1731273;82;21061;-78
2021/05/12 06:41:08;;;;;;;6.95;2.58;;;;;;;17.26;52.19;98403.73;1728681;82;21123;-78
2021/05/12 06:43:34;;;;;;;6.87;2.60;;;;;;;17.37;51.88;98404.38;1720801;82;21092;-78
2021/05/12 06:46:01;;;;;;;7.60;2.60;;;;;;;17.45;52.39;98401.27;1757190;81;21116;-78
2021/05/12 06:48:28;;;;;;;9.03;3.30;;;;;;;17.54;50.86;98398.03;1738294;81;22053;-78
2021/05/12 06:50:54;;;;;;;8.08;2.75;;;;;;;17.59;50.81;98393.33;1751011;81;21020;-79
2021/05/12 06:53:30;;;;;;;8.60;2.20;;;;;;;17.69;51.74;98396.20;1744276;81;21144;-78
2021/05/12 06:55:59;;;;;;;6.95;2.70;;;;;;;17.78;51.42;98394.27;1752412;81;21069;-79
2021/05/12 06:58:25;;;;;;;5.30;2.37;;;;;;;17.86;51.38;98397.26;1743506;81;21063;-79
2021/05/12 07:00:52;;;;;;;8.00;2.90;;;;;;;17.92;50.40;98390.76;1742913;80;21057;-78
2021/05/12 07:03:23;;;;;;;8.33;3.08;;;;;;;18.00;50.31;98383.20;1758686;81;21069;-79
2021/05/12 07:05:51;;;;;;;6.83;2.35;;;;;;;18.03;49.68;98377.75;1751714;80;21605;-79
2021/05/12 07:08:18;;;;;;;6.85;2.50;;;;;;;18.08;50.15;98384.00;1722786;80;21076;-79
2021/05/12 07:10:44;;;;;;;5.08;2.35;;;;;;;18.14;48.11;98379.64;1777426;80;22332;-79
2021/05/12 07:13:11;;;;;;;9.93;2.77;;;;;;;18.20;49.42;98386.28;1752493;80;21059;-78
2021/05/12 07:15:37;;;;;;;4.87;2.80;;;;;;;18.26;49.50;98372.70;1761678;80;21958;-78
2021/05/12 07:18:04;;;;;;;4.87;2.47;;;;;;;18.33;49.19;98371.83;1750751;80;21146;-78
2021/05/12 07:20:31;;;;;;;6.37;2.33;;;;;;;18.40;48.35;98365.19;1761700;80;21174;-78
2021/05/12 07:23:06;;;;;;;4.35;2.33;;;;;;;18.42;47.10;98368.55;1749263;80;21095;-79
2021/05/12 07:25:33;;;;;;;6.35;2.47;;;;;;;18.46;47.79;98367.39;1759260;80;21040;-79
2021/05/12 07:28:00;;;;;;;7.97;2.62;;;;;;;18.55;47.87;98351.45;1750145;80;21083;-78
2021/05/12 07:30:28;;;;;;;6.53;2.60;;;;;;;18.66;48.21;98352.84;1753440;80;21074;-78
2021/05/12 07:32:55;;;;;;;7.17;2.95;;;;;;;18.77;48.43;98353.42;1740383;80;21051;-78
2021/05/12 07:35:22;;;;;;;5.80;2.77;;;;;;;18.90;48.44;98351.65;1760826;80;21061;-80
2021/05/12 07:37:49;;;;;;;6.03;2.22;;;;;;;18.98;47.61;98347.13;1748997;80;21036;-78
2021/05/12 07:40:15;;;;;;;3.80;2.12;;;;;;;19.09;45.10;98345.89;1764740;80;21542;-78
2021/05/12 07:42:44;;;;;;;9.18;2.72;;;;;;;19.17;47.12;98342.22;1752468;80;21042;-78
2021/05/12 07:45:12;;;;;;;6.37;2.25;;;;;;;19.27;46.76;98335.33;1760423;80;21067;-78
2021/05/12 07:47:39;;;;;;;10.53;2.35;;;;;;;19.40;45.95;98335.28;1750535;80;21052;-78
2021/05/12 07:50:09;;;;;;;6.47;2.22;;;;;;;19.48;46.82;98332.09;1743224;80;21163;-78
2021/05/12 07:52:37;;;;;;;6.55;2.30;;;;;;;19.55;45.00;98330.66;1749890;80;21023;-78
2021/05/12 07:55:05;;;;;;;6.75;2.60;;;;;;;19.64;46.25;98322.08;1730476;82;21585;-77
2021/05/12 07:57:32;;;;;;;6.60;2.20;;;;;;;19.74;45.98;98308.25;1724112;82;21063;-77
2021/05/12 08:00:01;;;;;;;6.65;2.33;;;;;;;19.85;46.08;98315.69;1737962;82;21553;-77
2021/05/12 08:02:27;;;;;;;6.95;2.40;;;;;;;19.97;45.39;98308.64;1746579;81;21044;-78
2021/05/12 08:04:54;;;;;;;11.88;2.60;;;;;;;20.03;45.52;98305.56;1745647;82;21084;-78
2021/05/12 08:07:20;;;;;;;7.30;2.70;;;;;;;20.10;44.78;98303.28;1746756;82;21048;-78
2021/05/12 08:09:47;;;;;;;5.67;2.77;;;;;;;20.14;42.91;98294.66;1747168;82;21132;-78
2021/05/12 08:12:15;;;;;;;5.22;2.40;;;;;;;20.16;44.10;98287.46;1719597;82;21069;-78
2021/05/12 08:14:44;;;;;;;6.33;2.65;;;;;;;20.14;44.02;98283.61;1738658;81;21089;-78
2021/05/12 08:17:11;;;;;;;8.38;2.65;;;;;;;20.11;43.04;98271.96;1746797;82;21620;-79
2021/05/12 08:19:38;;;;;;;7.05;2.50;;;;;;;20.11;42.88;98272.45;1809349;79;21037;-79
2021/05/12 08:22:09;;;;;;;6.10;2.20;;;;;;;20.16;43.22;98267.67;1791494;79;21065;-79
2021/05/12 08:24:36;;;;;;;8.95;2.45;;;;;;;20.24;42.52;98262.63;1811456;79;22161;-77
2021/05/12 08:27:05;;;;;;;6.92;2.40;;;;;;;20.29;43.44;98264.41;1793343;78;21017;-78
2021/05/12 08:29:41;;;;;;;7.83;2.60;;;;;;;20.38;42.06;98258.42;1780754;79;21342;-78
2021/05/12 08:32:05;;;;;;;8.40;2.35;;;;;;;20.50;41.84;98266.34;1810355;79;21073;-79
2021/05/12 08:34:34;;;;;;;8.78;2.80;;;;;;;20.54;41.77;98255.90;1802749;79;21062;-77
2021/05/12 08:37:01;;;;;;;9.45;3.25;;;;;;;20.68;41.76;98254.34;1808713;79;21064;-77
2021/05/12 08:39:31;;;;;;;6.45;2.77;;;;;;;20.82;41.89;98258.52;1793396;79;21094;-79
2021/05/12 08:42:02;;;;;;;8.58;2.65;;;;;;;20.94;42.28;98251.41;1785516;79;21139;-78
2021/05/12 08:44:33;;;;;;;8.93;2.90;;;;;;;21.07;42.33;98246.81;1785026;79;21050;-76
2021/05/12 08:47:01;;;;;;;5.65;2.55;;;;;;;21.22;40.92;98244.70;1811570;78;21588;-78
2021/05/12 08:49:28;;;;;;;7.10;2.30;;;;;;;21.28;41.08;98244.19;1803718;78;21126;-79
2021/05/12 08:51:55;;;;;;;7.37;2.08;;;;;;;21.41;41.12;98238.73;1781142;80;21023;-78
2021/05/12 08:54:22;;;;;;;11.03;3.60;;;;;;;21.59;41.79;98246.48;1799890;78;21046;-79
2021/05/12 08:56:49;;;;;;;9.03;2.70;;;;;;;21.76;41.87;98244.20;1821368;78;21013;-78
2021/05/12 08:59:16;;;;;;;6.95;2.50;;;;;;;21.83;38.96;98235.63;1808795;78;22163;-79
2021/05/12 09:01:43;;;;;;;9.00;2.35;;;;;;;21.87;40.59;98238.02;1792507;80;21017;-78
2021/05/12 09:04:10;;;;;;;5.30;2.10;;;;;;;21.85;38.47;98240.79;1804699;78;21025;-77
2021/05/12 09:06:38;;;;;;;4.78;1.85;;;;;;;21.91;39.75;98241.59;1805229;78;21018;-78
2021/05/12 09:09:09;;;;;;;5.05;2.05;;;;;;;21.92;38.92;98237.95;1802810;78;21326;-78
2021/05/12 09:11:36;;;;;;;9.03;2.30;;;;;;;21.96;36.08;98239.86;1807617;78;21005;-79
2021/05/12 09:14:08;;;;;;;8.40;2.17;;;;;;;22.00;38.25;98228.91;1799583;78;21140;-78
2021/05/12 09:16:35;;;;;;;6.37;2.27;;;;;;;22.04;38.28;98221.52;1783020;80;20996;-77
2021/05/12 09:19:15;;;;;;;6.72;2.27;;;;;;;22.18;37.85;98220.31;1780148;80;21080;-79
2021/05/12 09:22:00;;;;;;;4.90;1.90;;;;;;;22.30;38.48;98217.13;1777054;80;21057;-79
2021/05/12 09:24:35;;;;;;;4.92;1.80;;;;;;;22.46;38.62;98210.00;1772516;80;21422;-78
2021/05/12 09:27:17;;;;;;;3.77;2.35;;;;;;;22.58;37.62;98212.88;1774667;80;21675;-79
2021/05/12 09:29:45;;;;;;;5.35;1.90;;;;;;;22.62;37.50;98203.69;1781392;80;21037;-78
2021/05/12 09:32:17;;;;;;;5.58;2.30;;;;;;;22.67;37.35;98199.32;1769886;79;21159;-77
2021/05/12 09:35:03;;;;;;;6.53;2.03;;;;;;;22.73;35.80;98196.13;1742630;80;21070;-78
2021/05/12 09:37:36;;;;;;;4.92;1.95;;;;;;;22.83;36.40;98197.80;1777977;80;22207;-78
2021/05/12 09:40:13;;;;;;;5.08;2.30;;;;;;;22.88;36.51;98196.54;1778323;80;21731;-79
2021/05/12 09:42:42;;;;;;;4.15;2.00;;;;;;;22.94;36.92;98184.06;1765912;79;21048;-79
2021/05/12 09:45:14;;;;;;;5.03;1.90;;;;;;;22.96;34.66;98188.73;1777021;80;21021;-78
2021/05/12 09:47:47;;;;;;;4.92;2.12;;;;;;;22.94;34.37;98180.94;1763339;80;21104;-77
2021/05/12 09:50:21;;;;;;;5.00;2.75;;;;;;;22.94;35.11;98181.41;1780573;80;21068;-78
2021/05/12 09:52:46;;;;;;;5.47;1.98;;;;;;;22.92;35.88;98170.11;1776709;80;21049;-77
2021/05/12 09:55:14;;;;;;;7.50;2.30;;;;;;;22.98;36.09;98170.41;1774015;80;21615;-79
2021/05/12 09:58:10;;;;;;;11.20;2.30;;;;;;;23.08;35.64;98156.33;1774724;80;21068;-80
2021/05/12 10:00:39;;;;;;;6.70;2.15;;;;;;;23.22;35.75;98158.57;1777363;80;21210;-80
2021/05/12 10:03:09;;;;;;;7.08;3.08;;;;;;;23.34;35.46;98159.25;1772888;80;21542;-79
2021/05/12 10:05:58;;;;;;;4.92;2.10;;;;;;;23.46;36.07;98158.11;1784005;80;21612;-78
2021/05/12 10:08:30;;;;;;;6.85;2.00;;;;;;;23.60;35.76;98156.32;1788945;80;21076;-79
2021/05/12 10:11:06;;;;;;;7.30;2.10;;;;;;;23.67;35.08;98151.27;1780774;80;21084;-80
2021/05/12 10:13:36;;;;;;;7.40;2.10;;;;;;;23.75;35.81;98138.11;1781059;80;21029;-78
2021/05/12 10:16:06;;;;;;;7.50;1.90;;;;;;;23.89;34.38;98142.63;1765975;80;21141;-78
2021/05/12 10:18:33;;;;;;;7.70;2.30;;;;;;;24.08;35.40;98143.05;1772339;80;21135;-79
2021/05/12 10:21:01;;;;;;;6.90;2.10;;;;;;;24.18;35.40;98134.04;1776065;80;21012;-78
2021/05/12 10:23:29;;;;;;;4.17;2.10;;;;;;;24.30;35.37;98132.02;1782634;78;21065;-79
2021/05/12 10:26:02;;;;;;;8.68;2.15;;;;;;;24.41;34.79;98137.12;1779305;80;21068;-78
2021/05/12 10:28:38;;;;;;;13.55;2.05;;;;;;;24.45;34.38;98136.31;1772875;80;22288;-82
2021/05/12 10:31:07;;;;;;;4.45;2.10;;;;;;;24.48;34.58;98125.91;1779533;80;21072;-77
2021/05/12 10:33:51;;;;;;;4.50;2.08;;;;;;;24.61;34.43;98131.22;1781955;80;21030;-79
2021/05/12 10:36:19;;;;;;;6.10;2.40;;;;;;;24.57;34.43;98122.35;1771443;80;21069;-78
2021/05/12 10:38:47;;;;;;;8.15;2.40;;;;;;;24.68;34.82;98122.14;1780922;80;21065;-79
2021/05/12 10:41:48;;;;;;;5.60;2.02;;;;;;;24.75;33.81;98123.69;1760315;80;21098;-80
2021/05/12 10:44:36;;;;;;;5.78;2.00;;;;;;;24.79;34.27;98123.25;1769157;80;21123;-79
2021/05/12 10:47:18;;;;;;;7.53;1.98;;;;;;;24.86;34.40;98112.00;1787974;80;21640;-79
2021/05/12 10:49:51;;;;;;;6.33;1.72;;;;;;;25.00;34.60;98112.78;1777018;80;21041;-80
2021/05/12 10:52:18;;;;;;;8.85;2.15;;;;;;;25.21;33.84;98108.46;1770214;79;21564;-79
2021/05/12 10:54:49;;;;;;;5.33;2.05;;;;;;;25.40;34.27;98100.78;1774174;80;21542;-80
2021/05/12 10:57:46;;;;;;;6.20;2.00;;;;;;;25.47;33.57;98089.87;1760319;80;21059;-80
2021/05/12 11:00:15;;;;;;;4.40;2.00;;;;;;;25.47;32.95;98089.87;1779596;80;21002;-79
2021/05/12 11:03:00;;;;;;;3.70;1.90;;;;;;;25.51;32.15;98093.05;1779081;80;21072;-80
2021/05/12 11:05:23;;;;;;;8.00;2.02;;;;;;;25.57;32.55;98086.59;1771576;80;21025;-80
2021/05/12 11:08:21;;;;;;;7.03;1.70;;;;;;;25.57;32.25;98076.45;1778214;80;21050;-79
2021/05/12 11:11:05;;;;;;;4.87;1.95;;;;;;;25.73;32.92;98073.03;1771775;80;21497;-80
2021/05/12 11:13:35;;;;;;;7.03;2.10;;;;;;;25.94;32.02;98067.30;1782305;80;21061;-79
2021/05/12 11:16:04;;;;;;;7.47;2.20;;;;;;;26.12;32.23;98061.39;1776581;79;21040;-78
2021/05/12 11:18:49;;;;;;;4.33;2.35;;;;;;;26.12;31.81;98052.55;1778254;80;21061;-80
2021/05/12 11:21:37;;;;;;;8.80;1.98;;;;;;;26.08;31.89;98065.85;1777049;80;21036;-79
2021/05/12 11:24:18;;;;;;;9.03;2.02;;;;;;;26.18;31.56;98066.06;1781307;80;21096;-80
2021/05/12 11:26:51;;;;;;;4.08;2.00;;;;;;;26.28;30.94;98057.93;1774433;80;21049;-83
2021/05/12 11:32:03;;;;;;;6.45;1.98;;;;;;;26.56;31.22;98053.61;1779356;80;21049;-81
2021/05/12 11:34:30;;;;;;;8.08;3.20;;;;;;;26.64;30.79;98047.01;1775571;80;21053;-81
2021/05/12 11:37:08;;;;;;;7.35;2.00;;;;;;;26.78;30.80;98042.84;1774321;80;21021;-81
2021/05/12 11:39:35;;;;;;;4.05;1.65;;;;;;;26.94;30.45;98038.82;1779848;80;21052;-81
2021/05/12 11:42:02;;;;;;;5.03;1.98;;;;;;;27.04;29.49;98041.79;1731973;82;21045;-80
2021/05/12 11:44:29;;;;;;;8.13;1.87;;;;;;;27.09;29.82;98035.46;1746721;80;21065;-81
2021/05/12 11:46:55;;;;;;;6.08;1.98;;;;;;;27.26;29.51;98040.30;1740622;81;21074;-81
2021/05/12 11:49:27;;;;;;;4.25;1.70;;;;;;;27.48;29.59;98027.55;1754319;80;21103;-80